sensor_id;sensor_type;location;lat;lon;timestamp;temperature;humidity
75738;DHT22;64356;45.638;13.764;2023-07-22T00:02:03;28.50;61.60
75738;DHT22;64356;45.638;13.764;2023-07-22T00:04:29;28.50;61.50
75738;DHT22;64356;45.638;13.764;2023-07-22T00:06:54;28.50;61.30
75738;DHT22;64356;45.638;13.764;2023-07-22T00:09:20;28.50;61.30
75738;DHT22;64356;45.638;13.764;2023-07-22T00:11:46;28.50;61.20
75738;DHT22;64356;45.638;13.764;2023-07-22T00:14:11;28.50;60.90
75738;DHT22;64356;45.638;13.764;2023-07-22T00:16:37;28.50;61.50
75738;DHT22;64356;45.638;13.764;2023-07-22T00:19:03;28.50;61.00
75738;DHT22;64356;45.638;13.764;2023-07-22T00:21:29;28.50;61.00
75738;DHT22;64356;45.638;13.764;2023-07-22T00:23:55;28.40;60.90
75738;DHT22;64356;45.638;13.764;2023-07-22T00:26:20;28.50;60.90
75738;DHT22;64356;45.638;13.764;2023-07-22T00:28:46;28.50;60.80
75738;DHT22;64356;45.638;13.764;2023-07-22T00:31:12;28.50;60.60
75738;DHT22;64356;45.638;13.764;2023-07-22T00:33:38;28.50;60.50
75738;DHT22;64356;45.638;13.764;2023-07-22T00:36:04;28.50;60.30
75738;DHT22;64356;45.638;13.764;2023-07-22T00:38:30;28.50;60.30
75738;DHT22;64356;45.638;13.764;2023-07-22T00:40:56;28.50;60.40
75738;DHT22;64356;45.638;13.764;2023-07-22T00:43:22;28.50;60.50
75738;DHT22;64356;45.638;13.764;2023-07-22T00:45:47;28.50;60.80
75738;DHT22;64356;45.638;13.764;2023-07-22T00:48:14;28.50;61.20
75738;DHT22;64356;45.638;13.764;2023-07-22T00:50:40;28.40;61.40
75738;DHT22;64356;45.638;13.764;2023-07-22T00:53:06;28.50;61.60
75738;DHT22;64356;45.638;13.764;2023-07-22T00:55:33;28.50;61.60
75738;DHT22;64356;45.638;13.764;2023-07-22T00:58:01;28.40;61.50
75738;DHT22;64356;45.638;13.764;2023-07-22T01:00:26;28.50;61.60
75738;DHT22;64356;45.638;13.764;2023-07-22T01:02:52;28.40;61.40
75738;DHT22;64356;45.638;13.764;2023-07-22T01:05:18;28.50;61.50
75738;DHT22;64356;45.638;13.764;2023-07-22T01:07:44;28.40;61.50
75738;DHT22;64356;45.638;13.764;2023-07-22T01:10:10;28.40;61.50
75738;DHT22;64356;45.638;13.764;2023-07-22T01:12:36;28.40;61.50
75738;DHT22;64356;45.638;13.764;2023-07-22T01:15:03;28.40;61.40
75738;DHT22;64356;45.638;13.764;2023-07-22T01:17:33;28.40;61.30
75738;DHT22;64356;45.638;13.764;2023-07-22T01:20:00;28.40;61.20
75738;DHT22;64356;45.638;13.764;2023-07-22T01:22:27;28.40;61.10
75738;DHT22;64356;45.638;13.764;2023-07-22T01:24:54;28.40;60.80
75738;DHT22;64356;45.638;13.764;2023-07-22T01:27:20;28.40;60.60
75738;DHT22;64356;45.638;13.764;2023-07-22T01:29:46;28.40;60.50
75738;DHT22;64356;45.638;13.764;2023-07-22T01:32:11;28.40;60.50
75738;DHT22;64356;45.638;13.764;2023-07-22T01:34:37;28.40;60.30
75738;DHT22;64356;45.638;13.764;2023-07-22T01:37:03;28.40;60.20
75738;DHT22;64356;45.638;13.764;2023-07-22T01:39:30;28.40;60.00
75738;DHT22;64356;45.638;13.764;2023-07-22T01:41:55;28.40;59.80
75738;DHT22;64356;45.638;13.764;2023-07-22T01:44:21;28.40;59.80
75738;DHT22;64356;45.638;13.764;2023-07-22T01:46:47;28.40;59.40
75738;DHT22;64356;45.638;13.764;2023-07-22T01:49:13;28.40;59.00
75738;DHT22;64356;45.638;13.764;2023-07-22T01:51:39;28.40;58.90
75738;DHT22;64356;45.638;13.764;2023-07-22T01:54:08;28.40;59.10
75738;DHT22;64356;45.638;13.764;2023-07-22T01:56:38;28.40;59.00
75738;DHT22;64356;45.638;13.764;2023-07-22T01:59:05;28.40;59.20
75738;DHT22;64356;45.638;13.764;2023-07-22T02:01:31;28.40;58.50
75738;DHT22;64356;45.638;13.764;2023-07-22T02:03:57;28.40;58.10
75738;DHT22;64356;45.638;13.764;2023-07-22T02:06:23;28.40;58.10
75738;DHT22;64356;45.638;13.764;2023-07-22T02:08:49;28.40;58.10
75738;DHT22;64356;45.638;13.764;2023-07-22T02:11:16;28.40;58.00
75738;DHT22;64356;45.638;13.764;2023-07-22T02:13:41;28.40;57.90
75738;DHT22;64356;45.638;13.764;2023-07-22T02:16:07;28.40;57.90
75738;DHT22;64356;45.638;13.764;2023-07-22T02:18:37;28.40;57.90
75738;DHT22;64356;45.638;13.764;2023-07-22T02:21:03;28.40;57.80
75738;DHT22;64356;45.638;13.764;2023-07-22T02:23:28;28.40;57.80
75738;DHT22;64356;45.638;13.764;2023-07-22T02:25:54;28.40;57.70
75738;DHT22;64356;45.638;13.764;2023-07-22T02:28:21;28.30;57.50
75738;DHT22;64356;45.638;13.764;2023-07-22T02:30:52;28.30;57.70
75738;DHT22;64356;45.638;13.764;2023-07-22T02:33:18;28.40;57.60
75738;DHT22;64356;45.638;13.764;2023-07-22T02:35:44;28.40;57.50
75738;DHT22;64356;45.638;13.764;2023-07-22T02:38:10;28.40;57.40
75738;DHT22;64356;45.638;13.764;2023-07-22T02:40:39;28.40;57.30
75738;DHT22;64356;45.638;13.764;2023-07-22T02:43:05;28.30;56.90
75738;DHT22;64356;45.638;13.764;2023-07-22T02:45:33;28.40;56.80
75738;DHT22;64356;45.638;13.764;2023-07-22T02:47:59;28.40;56.70
75738;DHT22;64356;45.638;13.764;2023-07-22T02:50:25;28.40;56.60
75738;DHT22;64356;45.638;13.764;2023-07-22T02:52:51;28.40;56.60
75738;DHT22;64356;45.638;13.764;2023-07-22T02:55:18;28.40;56.70
75738;DHT22;64356;45.638;13.764;2023-07-22T02:57:47;28.40;56.70
75738;DHT22;64356;45.638;13.764;2023-07-22T03:00:15;28.40;56.60
75738;DHT22;64356;45.638;13.764;2023-07-22T03:02:54;28.40;56.70
75738;DHT22;64356;45.638;13.764;2023-07-22T03:05:29;28.40;56.80
75738;DHT22;64356;45.638;13.764;2023-07-22T03:07:55;28.40;56.70
75738;DHT22;64356;45.638;13.764;2023-07-22T03:10:21;28.40;56.60
75738;DHT22;64356;45.638;13.764;2023-07-22T03:12:48;28.40;56.60
75738;DHT22;64356;45.638;13.764;2023-07-22T03:15:14;28.40;56.50
75738;DHT22;64356;45.638;13.764;2023-07-22T03:17:40;28.40;56.50
75738;DHT22;64356;45.638;13.764;2023-07-22T03:20:09;28.40;56.50
75738;DHT22;64356;45.638;13.764;2023-07-22T03:22:43;28.40;56.50
75738;DHT22;64356;45.638;13.764;2023-07-22T03:25:10;28.40;56.50
75738;DHT22;64356;45.638;13.764;2023-07-22T03:27:37;28.40;56.40
75738;DHT22;64356;45.638;13.764;2023-07-22T03:30:06;28.40;56.40
75738;DHT22;64356;45.638;13.764;2023-07-22T03:32:33;28.40;56.50
75738;DHT22;64356;45.638;13.764;2023-07-22T03:35:00;28.40;56.70
75738;DHT22;64356;45.638;13.764;2023-07-22T03:37:27;28.40;56.70
75738;DHT22;64356;45.638;13.764;2023-07-22T03:39:53;28.40;57.30
75738;DHT22;64356;45.638;13.764;2023-07-22T03:42:19;28.40;56.90
75738;DHT22;64356;45.638;13.764;2023-07-22T03:44:45;28.40;56.90
75738;DHT22;64356;45.638;13.764;2023-07-22T03:47:10;28.40;56.90
75738;DHT22;64356;45.638;13.764;2023-07-22T03:49:36;28.30;56.80
75738;DHT22;64356;45.638;13.764;2023-07-22T03:52:02;28.40;56.70
75738;DHT22;64356;45.638;13.764;2023-07-22T03:54:28;28.30;56.60
75738;DHT22;64356;45.638;13.764;2023-07-22T03:56:53;28.30;56.40
75738;DHT22;64356;45.638;13.764;2023-07-22T03:59:19;28.30;56.20
75738;DHT22;64356;45.638;13.764;2023-07-22T04:01:45;28.30;56.10
75738;DHT22;64356;45.638;13.764;2023-07-22T04:04:12;28.30;55.90
75738;DHT22;64356;45.638;13.764;2023-07-22T04:06:38;28.30;55.80
75738;DHT22;64356;45.638;13.764;2023-07-22T04:09:04;28.30;55.70
75738;DHT22;64356;45.638;13.764;2023-07-22T04:11:29;28.30;55.60
75738;DHT22;64356;45.638;13.764;2023-07-22T04:13:55;28.30;55.50
75738;DHT22;64356;45.638;13.764;2023-07-22T04:16:21;28.30;55.50
75738;DHT22;64356;45.638;13.764;2023-07-22T04:18:46;28.30;55.40
75738;DHT22;64356;45.638;13.764;2023-07-22T04:21:12;28.30;55.30
75738;DHT22;64356;45.638;13.764;2023-07-22T04:23:38;28.30;55.30
75738;DHT22;64356;45.638;13.764;2023-07-22T04:26:04;28.30;55.10
75738;DHT22;64356;45.638;13.764;2023-07-22T04:28:35;28.30;55.10
75738;DHT22;64356;45.638;13.764;2023-07-22T04:31:02;28.30;55.00
75738;DHT22;64356;45.638;13.764;2023-07-22T04:33:29;28.30;55.00
75738;DHT22;64356;45.638;13.764;2023-07-22T04:35:57;28.30;54.80
75738;DHT22;64356;45.638;13.764;2023-07-22T04:38:23;28.30;54.70
75738;DHT22;64356;45.638;13.764;2023-07-22T04:40:49;28.30;54.80
75738;DHT22;64356;45.638;13.764;2023-07-22T04:43:15;28.30;54.60
75738;DHT22;64356;45.638;13.764;2023-07-22T04:45:41;28.30;55.10
75738;DHT22;64356;45.638;13.764;2023-07-22T04:48:06;28.30;54.60
75738;DHT22;64356;45.638;13.764;2023-07-22T04:50:33;28.30;54.60
75738;DHT22;64356;45.638;13.764;2023-07-22T04:52:59;28.30;54.50
75738;DHT22;64356;45.638;13.764;2023-07-22T04:55:25;28.30;54.30
75738;DHT22;64356;45.638;13.764;2023-07-22T04:57:51;28.30;54.30
75738;DHT22;64356;45.638;13.764;2023-07-22T05:00:17;28.30;54.20
75738;DHT22;64356;45.638;13.764;2023-07-22T05:02:45;28.30;54.20
75738;DHT22;64356;45.638;13.764;2023-07-22T05:05:15;28.30;54.10
75738;DHT22;64356;45.638;13.764;2023-07-22T05:07:41;28.20;54.10
75738;DHT22;64356;45.638;13.764;2023-07-22T05:10:08;28.30;54.20
75738;DHT22;64356;45.638;13.764;2023-07-22T05:12:38;28.30;54.30
75738;DHT22;64356;45.638;13.764;2023-07-22T05:15:05;28.30;54.20
75738;DHT22;64356;45.638;13.764;2023-07-22T05:17:31;28.20;54.20
75738;DHT22;64356;45.638;13.764;2023-07-22T05:19:57;28.20;54.10
75738;DHT22;64356;45.638;13.764;2023-07-22T05:22:24;28.30;54.10
75738;DHT22;64356;45.638;13.764;2023-07-22T05:24:50;28.30;54.10
75738;DHT22;64356;45.638;13.764;2023-07-22T05:27:17;28.20;54.30
75738;DHT22;64356;45.638;13.764;2023-07-22T05:29:42;28.20;54.40
75738;DHT22;64356;45.638;13.764;2023-07-22T05:32:09;28.20;54.40
75738;DHT22;64356;45.638;13.764;2023-07-22T05:34:34;28.20;54.40
75738;DHT22;64356;45.638;13.764;2023-07-22T05:37:00;28.30;54.40
75738;DHT22;64356;45.638;13.764;2023-07-22T05:39:26;28.30;54.40
75738;DHT22;64356;45.638;13.764;2023-07-22T05:41:52;28.30;54.30
75738;DHT22;64356;45.638;13.764;2023-07-22T05:44:18;28.20;54.20
75738;DHT22;64356;45.638;13.764;2023-07-22T05:46:44;28.20;54.50
75738;DHT22;64356;45.638;13.764;2023-07-22T05:49:09;28.20;54.50
75738;DHT22;64356;45.638;13.764;2023-07-22T05:51:36;28.10;53.60
75738;DHT22;64356;45.638;13.764;2023-07-22T05:54:03;28.10;53.10
75738;DHT22;64356;45.638;13.764;2023-07-22T05:56:28;28.10;52.90
75738;DHT22;64356;45.638;13.764;2023-07-22T05:58:54;28.00;53.70
75738;DHT22;64356;45.638;13.764;2023-07-22T06:01:20;28.00;54.00
75738;DHT22;64356;45.638;13.764;2023-07-22T06:03:47;27.90;53.70
75738;DHT22;64356;45.638;13.764;2023-07-22T06:06:13;27.90;53.70
75738;DHT22;64356;45.638;13.764;2023-07-22T06:08:39;27.90;53.70
75738;DHT22;64356;45.638;13.764;2023-07-22T06:11:04;27.80;54.10
75738;DHT22;64356;45.638;13.764;2023-07-22T06:13:30;27.80;54.00
75738;DHT22;64356;45.638;13.764;2023-07-22T06:15:56;27.80;53.60
75738;DHT22;64356;45.638;13.764;2023-07-22T06:18:22;27.90;53.90
75738;DHT22;64356;45.638;13.764;2023-07-22T06:20:49;27.80;53.90
75738;DHT22;64356;45.638;13.764;2023-07-22T06:23:15;27.80;54.20
75738;DHT22;64356;45.638;13.764;2023-07-22T06:25:41;27.80;54.20
75738;DHT22;64356;45.638;13.764;2023-07-22T06:28:07;27.80;53.60
75738;DHT22;64356;45.638;13.764;2023-07-22T06:30:32;27.80;53.80
75738;DHT22;64356;45.638;13.764;2023-07-22T06:32:58;27.80;53.80
75738;DHT22;64356;45.638;13.764;2023-07-22T06:35:24;27.80;54.10
75738;DHT22;64356;45.638;13.764;2023-07-22T06:37:50;27.80;54.30
75738;DHT22;64356;45.638;13.764;2023-07-22T06:40:15;27.80;54.50
75738;DHT22;64356;45.638;13.764;2023-07-22T06:42:41;27.70;54.80
75738;DHT22;64356;45.638;13.764;2023-07-22T06:45:07;27.80;54.40
75738;DHT22;64356;45.638;13.764;2023-07-22T06:47:33;27.80;53.60
75738;DHT22;64356;45.638;13.764;2023-07-22T06:49:59;27.80;53.30
75738;DHT22;64356;45.638;13.764;2023-07-22T06:52:24;27.80;53.10
75738;DHT22;64356;45.638;13.764;2023-07-22T06:54:50;27.80;52.70
75738;DHT22;64356;45.638;13.764;2023-07-22T06:57:16;27.80;53.90
75738;DHT22;64356;45.638;13.764;2023-07-22T06:59:42;27.80;53.90
75738;DHT22;64356;45.638;13.764;2023-07-22T07:02:08;27.80;53.60
75738;DHT22;64356;45.638;13.764;2023-07-22T07:04:34;27.80;53.30
75738;DHT22;64356;45.638;13.764;2023-07-22T07:07:00;27.80;53.30
75738;DHT22;64356;45.638;13.764;2023-07-22T07:09:26;27.80;52.90
75738;DHT22;64356;45.638;13.764;2023-07-22T07:11:52;27.90;52.90
75738;DHT22;64356;45.638;13.764;2023-07-22T07:14:18;27.80;52.80
75738;DHT22;64356;45.638;13.764;2023-07-22T07:16:44;27.90;52.80
75738;DHT22;64356;45.638;13.764;2023-07-22T07:19:10;27.90;53.90
75738;DHT22;64356;45.638;13.764;2023-07-22T07:21:36;27.90;53.90
75738;DHT22;64356;45.638;13.764;2023-07-22T07:24:01;27.80;55.50
75738;DHT22;64356;45.638;13.764;2023-07-22T07:26:27;27.80;55.40
75738;DHT22;64356;45.638;13.764;2023-07-22T07:28:53;27.80;54.60
75738;DHT22;64356;45.638;13.764;2023-07-22T07:31:19;27.80;54.30
75738;DHT22;64356;45.638;13.764;2023-07-22T07:33:45;27.80;54.00
75738;DHT22;64356;45.638;13.764;2023-07-22T07:36:11;27.80;54.50
75738;DHT22;64356;45.638;13.764;2023-07-22T07:38:37;27.80;54.70
75738;DHT22;64356;45.638;13.764;2023-07-22T07:41:04;27.80;54.60
75738;DHT22;64356;45.638;13.764;2023-07-22T07:43:34;27.80;54.60
75738;DHT22;64356;45.638;13.764;2023-07-22T07:48:44;27.80;54.60
75738;DHT22;64356;45.638;13.764;2023-07-22T07:51:11;27.90;54.90
75738;DHT22;64356;45.638;13.764;2023-07-22T07:53:37;27.90;54.80
75738;DHT22;64356;45.638;13.764;2023-07-22T07:56:03;27.90;54.80
75738;DHT22;64356;45.638;13.764;2023-07-22T07:58:29;27.90;54.60
75738;DHT22;64356;45.638;13.764;2023-07-22T08:00:55;28.00;54.40
75738;DHT22;64356;45.638;13.764;2023-07-22T08:03:20;28.00;54.50
75738;DHT22;64356;45.638;13.764;2023-07-22T08:05:46;28.00;54.30
75738;DHT22;64356;45.638;13.764;2023-07-22T08:08:12;28.00;54.50
75738;DHT22;64356;45.638;13.764;2023-07-22T08:10:38;28.00;54.60
75738;DHT22;64356;45.638;13.764;2023-07-22T08:13:04;28.00;54.50
75738;DHT22;64356;45.638;13.764;2023-07-22T08:15:30;28.10;54.30
75738;DHT22;64356;45.638;13.764;2023-07-22T08:17:56;28.00;54.10
75738;DHT22;64356;45.638;13.764;2023-07-22T08:20:22;28.10;53.90
75738;DHT22;64356;45.638;13.764;2023-07-22T08:22:48;28.10;54.00
75738;DHT22;64356;45.638;13.764;2023-07-22T08:25:13;28.10;54.00
75738;DHT22;64356;45.638;13.764;2023-07-22T08:27:39;28.10;54.20
75738;DHT22;64356;45.638;13.764;2023-07-22T08:30:06;28.10;54.00
75738;DHT22;64356;45.638;13.764;2023-07-22T08:32:32;28.10;53.70
75738;DHT22;64356;45.638;13.764;2023-07-22T08:34:58;28.10;53.50
75738;DHT22;64356;45.638;13.764;2023-07-22T08:37:24;28.20;53.50
75738;DHT22;64356;45.638;13.764;2023-07-22T08:39:49;28.20;53.20
75738;DHT22;64356;45.638;13.764;2023-07-22T08:42:18;28.20;53.20
75738;DHT22;64356;45.638;13.764;2023-07-22T08:44:48;28.20;53.00
75738;DHT22;64356;45.638;13.764;2023-07-22T08:47:16;28.20;53.00
75738;DHT22;64356;45.638;13.764;2023-07-22T08:49:48;28.20;53.20
75738;DHT22;64356;45.638;13.764;2023-07-22T08:52:15;28.30;53.10
75738;DHT22;64356;45.638;13.764;2023-07-22T08:54:42;28.30;53.00
75738;DHT22;64356;45.638;13.764;2023-07-22T08:57:09;28.30;53.10
75738;DHT22;64356;45.638;13.764;2023-07-22T08:59:36;28.30;53.00
75738;DHT22;64356;45.638;13.764;2023-07-22T09:02:03;28.30;53.00
75738;DHT22;64356;45.638;13.764;2023-07-22T09:04:29;28.30;52.90
75738;DHT22;64356;45.638;13.764;2023-07-22T09:06:55;28.40;53.20
75738;DHT22;64356;45.638;13.764;2023-07-22T09:09:22;28.40;53.10
75738;DHT22;64356;45.638;13.764;2023-07-22T09:11:49;28.40;53.10
75738;DHT22;64356;45.638;13.764;2023-07-22T09:14:18;28.50;53.00
75738;DHT22;64356;45.638;13.764;2023-07-22T09:16:44;28.50;52.80
75738;DHT22;64356;45.638;13.764;2023-07-22T09:19:10;28.50;52.90
75738;DHT22;64356;45.638;13.764;2023-07-22T09:21:36;28.50;53.00
75738;DHT22;64356;45.638;13.764;2023-07-22T09:24:02;28.50;53.60
75738;DHT22;64356;45.638;13.764;2023-07-22T09:26:32;28.40;53.70
75738;DHT22;64356;45.638;13.764;2023-07-22T09:28:58;28.40;53.70
75738;DHT22;64356;45.638;13.764;2023-07-22T09:31:26;28.40;53.70
75738;DHT22;64356;45.638;13.764;2023-07-22T09:33:52;28.40;54.10
75738;DHT22;64356;45.638;13.764;2023-07-22T09:36:21;28.40;54.80
75738;DHT22;64356;45.638;13.764;2023-07-22T09:39:00;28.40;54.90
75738;DHT22;64356;45.638;13.764;2023-07-22T09:41:28;28.40;54.90
75738;DHT22;64356;45.638;13.764;2023-07-22T09:43:57;28.50;55.00
75738;DHT22;64356;45.638;13.764;2023-07-22T09:46:31;28.50;55.10
75738;DHT22;64356;45.638;13.764;2023-07-22T09:49:06;28.50;55.30
75738;DHT22;64356;45.638;13.764;2023-07-22T09:51:38;28.50;55.20
75738;DHT22;64356;45.638;13.764;2023-07-22T09:54:05;28.50;54.90
75738;DHT22;64356;45.638;13.764;2023-07-22T09:56:32;28.50;54.80
75738;DHT22;64356;45.638;13.764;2023-07-22T09:59:04;28.60;54.70
75738;DHT22;64356;45.638;13.764;2023-07-22T10:01:32;28.60;54.70
75738;DHT22;64356;45.638;13.764;2023-07-22T10:03:59;28.70;54.70
75738;DHT22;64356;45.638;13.764;2023-07-22T10:06:29;28.70;54.40
75738;DHT22;64356;45.638;13.764;2023-07-22T10:09:05;28.70;54.30
75738;DHT22;64356;45.638;13.764;2023-07-22T10:11:34;28.80;54.30
75738;DHT22;64356;45.638;13.764;2023-07-22T10:14:02;28.80;54.30
75738;DHT22;64356;45.638;13.764;2023-07-22T10:16:28;28.80;54.30
75738;DHT22;64356;45.638;13.764;2023-07-22T10:18:54;28.80;54.30
75738;DHT22;64356;45.638;13.764;2023-07-22T10:21:21;28.80;54.30
75738;DHT22;64356;45.638;13.764;2023-07-22T10:23:48;28.90;54.30
75738;DHT22;64356;45.638;13.764;2023-07-22T10:26:19;28.90;54.40
75738;DHT22;64356;45.638;13.764;2023-07-22T10:28:46;28.90;54.40
75738;DHT22;64356;45.638;13.764;2023-07-22T10:31:14;28.90;54.30
75738;DHT22;64356;45.638;13.764;2023-07-22T10:33:47;29.00;54.20
75738;DHT22;64356;45.638;13.764;2023-07-22T10:36:16;29.00;53.90
75738;DHT22;64356;45.638;13.764;2023-07-22T10:38:43;29.00;53.70
75738;DHT22;64356;45.638;13.764;2023-07-22T10:41:16;29.00;53.70
75738;DHT22;64356;45.638;13.764;2023-07-22T10:43:57;29.00;53.80
75738;DHT22;64356;45.638;13.764;2023-07-22T10:46:37;29.00;53.90
75738;DHT22;64356;45.638;13.764;2023-07-22T10:49:16;29.00;53.90
75738;DHT22;64356;45.638;13.764;2023-07-22T10:51:47;29.00;54.00
75738;DHT22;64356;45.638;13.764;2023-07-22T10:54:14;29.00;54.00
75738;DHT22;64356;45.638;13.764;2023-07-22T10:56:44;29.00;54.00
75738;DHT22;64356;45.638;13.764;2023-07-22T10:59:13;29.00;54.20
75738;DHT22;64356;45.638;13.764;2023-07-22T11:01:39;29.10;54.20
75738;DHT22;64356;45.638;13.764;2023-07-22T11:04:25;29.10;54.20
75738;DHT22;64356;45.638;13.764;2023-07-22T11:07:05;29.10;54.40
75738;DHT22;64356;45.638;13.764;2023-07-22T11:12:28;29.20;54.40
75738;DHT22;64356;45.638;13.764;2023-07-22T11:15:03;29.20;54.60
75738;DHT22;64356;45.638;13.764;2023-07-22T11:17:32;29.20;54.70
75738;DHT22;64356;45.638;13.764;2023-07-22T11:19:59;29.20;54.80
75738;DHT22;64356;45.638;13.764;2023-07-22T11:22:25;29.20;54.90
75738;DHT22;64356;45.638;13.764;2023-07-22T11:24:52;29.20;55.40
75738;DHT22;64356;45.638;13.764;2023-07-22T11:27:18;29.20;55.70
75738;DHT22;64356;45.638;13.764;2023-07-22T11:29:44;29.20;55.70
75738;DHT22;64356;45.638;13.764;2023-07-22T11:32:17;29.10;55.40
75738;DHT22;64356;45.638;13.764;2023-07-22T11:34:43;29.10;55.30
75738;DHT22;64356;45.638;13.764;2023-07-22T11:37:12;29.10;55.30
75738;DHT22;64356;45.638;13.764;2023-07-22T11:39:39;29.20;55.50
75738;DHT22;64356;45.638;13.764;2023-07-22T11:42:07;29.10;55.40
75738;DHT22;64356;45.638;13.764;2023-07-22T11:44:33;29.20;55.50
75738;DHT22;64356;45.638;13.764;2023-07-22T11:47:00;29.10;55.40
75738;DHT22;64356;45.638;13.764;2023-07-22T11:51:55;29.00;55.50
75738;DHT22;64356;45.638;13.764;2023-07-22T11:54:21;29.10;55.00
75738;DHT22;64356;45.638;13.764;2023-07-22T11:56:46;29.10;54.80
75738;DHT22;64356;45.638;13.764;2023-07-22T11:59:12;29.10;54.70
75738;DHT22;64356;45.638;13.764;2023-07-22T12:01:38;29.10;54.60
75738;DHT22;64356;45.638;13.764;2023-07-22T12:04:13;29.10;54.60
75738;DHT22;64356;45.638;13.764;2023-07-22T12:06:39;29.10;54.50
75738;DHT22;64356;45.638;13.764;2023-07-22T12:09:06;29.10;54.60
75738;DHT22;64356;45.638;13.764;2023-07-22T12:11:33;29.10;54.60
75738;DHT22;64356;45.638;13.764;2023-07-22T12:14:09;29.20;54.50
75738;DHT22;64356;45.638;13.764;2023-07-22T12:16:38;29.20;54.20
75738;DHT22;64356;45.638;13.764;2023-07-22T12:19:05;29.20;54.10
75738;DHT22;64356;45.638;13.764;2023-07-22T12:21:31;29.20;54.30
75738;DHT22;64356;45.638;13.764;2023-07-22T12:23:57;29.20;54.60
75738;DHT22;64356;45.638;13.764;2023-07-22T12:26:23;29.20;55.10
75738;DHT22;64356;45.638;13.764;2023-07-22T12:28:48;29.20;55.60
75738;DHT22;64356;45.638;13.764;2023-07-22T12:31:14;29.20;55.90
75738;DHT22;64356;45.638;13.764;2023-07-22T12:33:40;29.10;57.50
75738;DHT22;64356;45.638;13.764;2023-07-22T12:36:06;29.10;59.00
75738;DHT22;64356;45.638;13.764;2023-07-22T12:38:32;29.10;59.30
75738;DHT22;64356;45.638;13.764;2023-07-22T12:40:57;29.00;59.20
75738;DHT22;64356;45.638;13.764;2023-07-22T12:43:23;29.00;59.00
75738;DHT22;64356;45.638;13.764;2023-07-22T12:45:49;29.00;59.10
75738;DHT22;64356;45.638;13.764;2023-07-22T12:48:16;29.00;59.20
75738;DHT22;64356;45.638;13.764;2023-07-22T12:50:43;28.90;59.20
75738;DHT22;64356;45.638;13.764;2023-07-22T12:53:09;28.80;59.30
75738;DHT22;64356;45.638;13.764;2023-07-22T12:55:34;28.80;59.20
75738;DHT22;64356;45.638;13.764;2023-07-22T12:58:00;28.80;59.00
75738;DHT22;64356;45.638;13.764;2023-07-22T13:00:26;28.70;58.80
75738;DHT22;64356;45.638;13.764;2023-07-22T13:02:52;28.80;58.90
75738;DHT22;64356;45.638;13.764;2023-07-22T13:05:18;28.80;59.00
75738;DHT22;64356;45.638;13.764;2023-07-22T13:07:44;28.70;59.00
75738;DHT22;64356;45.638;13.764;2023-07-22T13:10:10;28.70;58.70
75738;DHT22;64356;45.638;13.764;2023-07-22T13:12:38;28.70;58.30
75738;DHT22;64356;45.638;13.764;2023-07-22T13:15:05;28.70;58.10
75738;DHT22;64356;45.638;13.764;2023-07-22T13:17:31;28.70;58.20
75738;DHT22;64356;45.638;13.764;2023-07-22T13:19:57;28.70;58.30
75738;DHT22;64356;45.638;13.764;2023-07-22T13:22:23;28.70;58.50
75738;DHT22;64356;45.638;13.764;2023-07-22T13:24:49;28.70;58.60
75738;DHT22;64356;45.638;13.764;2023-07-22T13:27:15;28.70;58.60
75738;DHT22;64356;45.638;13.764;2023-07-22T13:29:40;28.70;58.90
75738;DHT22;64356;45.638;13.764;2023-07-22T13:32:06;28.70;59.30
75738;DHT22;64356;45.638;13.764;2023-07-22T13:34:32;28.70;59.30
75738;DHT22;64356;45.638;13.764;2023-07-22T13:36:58;28.70;59.20
75738;DHT22;64356;45.638;13.764;2023-07-22T13:39:24;28.70;59.10
75738;DHT22;64356;45.638;13.764;2023-07-22T13:41:49;28.60;58.80
75738;DHT22;64356;45.638;13.764;2023-07-22T13:44:16;28.60;59.50
75738;DHT22;64356;45.638;13.764;2023-07-22T13:46:42;28.50;61.10
75738;DHT22;64356;45.638;13.764;2023-07-22T13:49:07;28.40;62.10
75738;DHT22;64356;45.638;13.764;2023-07-22T13:51:33;28.30;64.50
75738;DHT22;64356;45.638;13.764;2023-07-22T13:53:59;28.20;66.80
75738;DHT22;64356;45.638;13.764;2023-07-22T13:56:25;28.10;67.80
75738;DHT22;64356;45.638;13.764;2023-07-22T13:58:53;28.00;68.00
75738;DHT22;64356;45.638;13.764;2023-07-22T14:01:19;27.90;68.50
75738;DHT22;64356;45.638;13.764;2023-07-22T14:03:44;27.80;66.90
75738;DHT22;64356;45.638;13.764;2023-07-22T14:06:10;27.70;65.50
75738;DHT22;64356;45.638;13.764;2023-07-22T14:08:36;27.70;65.00
75738;DHT22;64356;45.638;13.764;2023-07-22T14:11:01;27.70;64.70
75738;DHT22;64356;45.638;13.764;2023-07-22T14:13:27;27.70;64.40
75738;DHT22;64356;45.638;13.764;2023-07-22T14:15:53;27.70;64.20
75738;DHT22;64356;45.638;13.764;2023-07-22T14:18:19;27.80;64.20
75738;DHT22;64356;45.638;13.764;2023-07-22T14:20:45;27.80;64.20
75738;DHT22;64356;45.638;13.764;2023-07-22T14:23:11;27.90;64.20
75738;DHT22;64356;45.638;13.764;2023-07-22T14:25:37;28.00;64.20
75738;DHT22;64356;45.638;13.764;2023-07-22T14:28:03;28.10;64.00
75738;DHT22;64356;45.638;13.764;2023-07-22T14:30:29;28.10;63.80
75738;DHT22;64356;45.638;13.764;2023-07-22T14:32:55;28.10;63.50
75738;DHT22;64356;45.638;13.764;2023-07-22T14:35:21;28.20;63.70
75738;DHT22;64356;45.638;13.764;2023-07-22T14:37:47;28.20;63.80
75738;DHT22;64356;45.638;13.764;2023-07-22T14:40:13;28.20;63.80
75738;DHT22;64356;45.638;13.764;2023-07-22T14:42:39;28.20;63.80
75738;DHT22;64356;45.638;13.764;2023-07-22T14:45:05;28.20;63.70
75738;DHT22;64356;45.638;13.764;2023-07-22T14:47:32;28.30;63.60
75738;DHT22;64356;45.638;13.764;2023-07-22T14:49:57;28.30;63.40
75738;DHT22;64356;45.638;13.764;2023-07-22T14:52:23;28.40;63.50
75738;DHT22;64356;45.638;13.764;2023-07-22T14:54:49;28.40;63.60
75738;DHT22;64356;45.638;13.764;2023-07-22T14:57:17;28.40;63.60
75738;DHT22;64356;45.638;13.764;2023-07-22T14:59:43;28.30;63.60
75738;DHT22;64356;45.638;13.764;2023-07-22T15:02:09;28.40;63.70
75738;DHT22;64356;45.638;13.764;2023-07-22T15:04:36;28.40;63.70
75738;DHT22;64356;45.638;13.764;2023-07-22T15:07:02;28.30;63.80
75738;DHT22;64356;45.638;13.764;2023-07-22T15:09:28;28.30;63.80
75738;DHT22;64356;45.638;13.764;2023-07-22T15:11:53;28.40;63.90
75738;DHT22;64356;45.638;13.764;2023-07-22T15:14:19;28.40;63.90
75738;DHT22;64356;45.638;13.764;2023-07-22T15:16:45;28.40;63.90
75738;DHT22;64356;45.638;13.764;2023-07-22T15:19:11;28.40;63.90
75738;DHT22;64356;45.638;13.764;2023-07-22T15:21:37;28.40;63.90